sensor_id;sensor_type;location;lat;lon;timestamp;temperature;humidity
10175;DHT22;18221;38.704;0.152;2024-03-23T01:01:45;16.50;99.90
10175;DHT22;18221;38.704;0.152;2024-03-23T01:04:13;16.50;99.90
10175;DHT22;18221;38.704;0.152;2024-03-23T01:06:40;16.50;99.90
10175;DHT22;18221;38.704;0.152;2024-03-23T01:09:08;16.50;99.90
10175;DHT22;18221;38.704;0.152;2024-03-23T01:11:36;16.50;99.90
10175;DHT22;18221;38.704;0.152;2024-03-23T01:14:04;16.40;99.90
10175;DHT22;18221;38.704;0.152;2024-03-23T01:16:32;16.40;99.90
10175;DHT22;18221;38.704;0.152;2024-03-23T01:19:01;16.40;99.90
10175;DHT22;18221;38.704;0.152;2024-03-23T01:21:28;16.40;99.90
10175;DHT22;18221;38.704;0.152;2024-03-23T01:23:56;16.40;99.90
10175;DHT22;18221;38.704;0.152;2024-03-23T01:26:23;16.40;99.90
10175;DHT22;18221;38.704;0.152;2024-03-23T01:28:51;16.40;99.90
10175;DHT22;18221;38.704;0.152;2024-03-23T01:31:18;16.40;99.90
10175;DHT22;18221;38.704;0.152;2024-03-23T01:33:46;16.50;99.90
10175;DHT22;18221;38.704;0.152;2024-03-23T01:36:14;16.40;99.90
10175;DHT22;18221;38.704;0.152;2024-03-23T01:38:43;16.50;99.90
10175;DHT22;18221;38.704;0.152;2024-03-23T01:41:09;16.50;99.90
10175;DHT22;18221;38.704;0.152;2024-03-23T01:43:37;16.50;99.90
10175;DHT22;18221;38.704;0.152;2024-03-23T01:46:04;16.50;99.90
10175;DHT22;18221;38.704;0.152;2024-03-23T01:48:32;16.40;99.90
10175;DHT22;18221;38.704;0.152;2024-03-23T01:50:59;16.50;99.90
10175;DHT22;18221;38.704;0.152;2024-03-23T01:53:29;16.50;99.90
10175;DHT22;18221;38.704;0.152;2024-03-23T01:55:57;16.40;99.90
10175;DHT22;18221;38.704;0.152;2024-03-23T01:58:25;16.40;99.90
10175;DHT22;18221;38.704;0.152;2024-03-23T02:00:52;16.40;99.90
10175;DHT22;18221;38.704;0.152;2024-03-23T02:03:23;16.30;99.90
10175;DHT22;18221;38.704;0.152;2024-03-23T02:05:51;16.30;99.90
10175;DHT22;18221;38.704;0.152;2024-03-23T02:11:27;16.30;99.90
10175;DHT22;18221;38.704;0.152;2024-03-23T02:13:54;16.30;99.90
10175;DHT22;18221;38.704;0.152;2024-03-23T02:16:21;16.30;99.90
10175;DHT22;18221;38.704;0.152;2024-03-23T02:18:48;16.30;99.90
10175;DHT22;18221;38.704;0.152;2024-03-23T02:21:16;16.30;99.90
10175;DHT22;18221;38.704;0.152;2024-03-23T02:23:45;16.20;99.90
10175;DHT22;18221;38.704;0.152;2024-03-23T02:26:13;16.30;99.90
10175;DHT22;18221;38.704;0.152;2024-03-23T02:28:41;16.20;99.90
10175;DHT22;18221;38.704;0.152;2024-03-23T02:31:09;16.30;99.90
10175;DHT22;18221;38.704;0.152;2024-03-23T02:33:36;16.20;99.90
10175;DHT22;18221;38.704;0.152;2024-03-23T02:36:04;16.20;99.90
10175;DHT22;18221;38.704;0.152;2024-03-23T02:38:31;16.20;99.90
10175;DHT22;18221;38.704;0.152;2024-03-23T02:41:03;16.20;99.90
10175;DHT22;18221;38.704;0.152;2024-03-23T02:43:30;16.20;99.90
10175;DHT22;18221;38.704;0.152;2024-03-23T02:45:58;16.20;99.90
10175;DHT22;18221;38.704;0.152;2024-03-23T02:48:25;16.20;99.90
10175;DHT22;18221;38.704;0.152;2024-03-23T02:50:53;16.20;99.90
10175;DHT22;18221;38.704;0.152;2024-03-23T02:53:20;16.30;99.90
10175;DHT22;18221;38.704;0.152;2024-03-23T02:55:48;16.30;99.90
10175;DHT22;18221;38.704;0.152;2024-03-23T02:58:16;16.20;99.90
10175;DHT22;18221;38.704;0.152;2024-03-23T03:00:45;16.20;99.90
10175;DHT22;18221;38.704;0.152;2024-03-23T03:03:11;16.20;99.90
10175;DHT22;18221;38.704;0.152;2024-03-23T03:05:39;16.20;99.90
10175;DHT22;18221;38.704;0.152;2024-03-23T03:08:06;16.20;99.90
10175;DHT22;18221;38.704;0.152;2024-03-23T03:10:34;16.20;99.90
10175;DHT22;18221;38.704;0.152;2024-03-23T03:13:02;16.20;99.90
10175;DHT22;18221;38.704;0.152;2024-03-23T03:15:32;16.20;99.90
10175;DHT22;18221;38.704;0.152;2024-03-23T03:17:58;16.20;99.90
10175;DHT22;18221;38.704;0.152;2024-03-23T03:20:26;16.10;99.90
10175;DHT22;18221;38.704;0.152;2024-03-23T03:22:53;16.10;99.90
10175;DHT22;18221;38.704;0.152;2024-03-23T03:25:21;16.10;99.90
10175;DHT22;18221;38.704;0.152;2024-03-23T03:27:48;16.10;99.90
10175;DHT22;18221;38.704;0.152;2024-03-23T03:30:17;16.10;99.90
10175;DHT22;18221;38.704;0.152;2024-03-23T03:32:45;16.10;99.90
10175;DHT22;18221;38.704;0.152;2024-03-23T03:35:13;16.10;99.90
10175;DHT22;18221;38.704;0.152;2024-03-23T03:37:40;16.10;99.90
10175;DHT22;18221;38.704;0.152;2024-03-23T03:40:09;16.10;99.90
10175;DHT22;18221;38.704;0.152;2024-03-23T03:42:37;16.10;99.90
10175;DHT22;18221;38.704;0.152;2024-03-23T03:45:06;16.10;99.90
10175;DHT22;18221;38.704;0.152;2024-03-23T03:47:33;16.00;99.90
10175;DHT22;18221;38.704;0.152;2024-03-23T03:50:03;16.00;99.90
10175;DHT22;18221;38.704;0.152;2024-03-23T03:52:30;16.00;99.90
10175;DHT22;18221;38.704;0.152;2024-03-23T03:55:01;16.00;99.90
10175;DHT22;18221;38.704;0.152;2024-03-23T03:57:29;15.90;99.90
10175;DHT22;18221;38.704;0.152;2024-03-23T03:59:57;16.00;99.90
10175;DHT22;18221;38.704;0.152;2024-03-23T04:02:23;15.90;99.90
10175;DHT22;18221;38.704;0.152;2024-03-23T04:04:51;15.90;99.90
10175;DHT22;18221;38.704;0.152;2024-03-23T04:07:20;16.00;99.90
10175;DHT22;18221;38.704;0.152;2024-03-23T04:09:48;16.00;99.90
10175;DHT22;18221;38.704;0.152;2024-03-23T04:12:15;16.00;99.90
10175;DHT22;18221;38.704;0.152;2024-03-23T04:14:43;16.00;99.90
10175;DHT22;18221;38.704;0.152;2024-03-23T04:17:10;16.10;99.90
10175;DHT22;18221;38.704;0.152;2024-03-23T04:19:41;16.00;99.90
10175;DHT22;18221;38.704;0.152;2024-03-23T04:22:08;16.00;99.90
10175;DHT22;18221;38.704;0.152;2024-03-23T04:24:37;16.00;99.90
10175;DHT22;18221;38.704;0.152;2024-03-23T04:27:04;16.00;99.90
10175;DHT22;18221;38.704;0.152;2024-03-23T04:29:34;16.00;99.90
10175;DHT22;18221;38.704;0.152;2024-03-23T04:32:01;15.90;99.90
10175;DHT22;18221;38.704;0.152;2024-03-23T04:34:30;15.90;99.90
10175;DHT22;18221;38.704;0.152;2024-03-23T04:36:58;15.90;99.90
10175;DHT22;18221;38.704;0.152;2024-03-23T04:39:27;15.90;99.90
10175;DHT22;18221;38.704;0.152;2024-03-23T04:41:56;15.90;99.90
10175;DHT22;18221;38.704;0.152;2024-03-23T04:44:24;15.90;99.90
10175;DHT22;18221;38.704;0.152;2024-03-23T04:46:52;16.00;99.90
10175;DHT22;18221;38.704;0.152;2024-03-23T04:49:20;16.10;99.90
10175;DHT22;18221;38.704;0.152;2024-03-23T04:51:48;14.70;99.90
10175;DHT22;18221;38.704;0.152;2024-03-23T04:54:16;16.20;99.90
10175;DHT22;18221;38.704;0.152;2024-03-23T04:56:45;16.30;99.90
10175;DHT22;18221;38.704;0.152;2024-03-23T04:59:14;16.30;99.90
10175;DHT22;18221;38.704;0.152;2024-03-23T05:01:41;16.40;99.90
10175;DHT22;18221;38.704;0.152;2024-03-23T05:04:09;16.40;99.90
10175;DHT22;18221;38.704;0.152;2024-03-23T05:06:36;16.40;99.90
10175;DHT22;18221;38.704;0.152;2024-03-23T05:09:04;16.50;99.90
10175;DHT22;18221;38.704;0.152;2024-03-23T05:11:32;16.50;99.90
10175;DHT22;18221;38.704;0.152;2024-03-23T05:14:00;16.40;99.90
10175;DHT22;18221;38.704;0.152;2024-03-23T05:16:30;16.40;99.90
10175;DHT22;18221;38.704;0.152;2024-03-23T05:18:58;16.40;99.90
10175;DHT22;18221;38.704;0.152;2024-03-23T05:21:25;16.40;99.90
10175;DHT22;18221;38.704;0.152;2024-03-23T05:23:54;16.40;99.90
10175;DHT22;18221;38.704;0.152;2024-03-23T05:26:22;16.40;99.90
10175;DHT22;18221;38.704;0.152;2024-03-23T05:28:50;16.30;99.90
10175;DHT22;18221;38.704;0.152;2024-03-23T05:31:23;16.30;99.90
10175;DHT22;18221;38.704;0.152;2024-03-23T05:33:53;16.20;99.90
10175;DHT22;18221;38.704;0.152;2024-03-23T05:36:20;16.20;99.90
10175;DHT22;18221;38.704;0.152;2024-03-23T05:38:49;16.20;99.90
10175;DHT22;18221;38.704;0.152;2024-03-23T05:41:16;16.10;99.90
10175;DHT22;18221;38.704;0.152;2024-03-23T05:43:44;16.10;99.90
10175;DHT22;18221;38.704;0.152;2024-03-23T05:46:11;16.00;99.90
10175;DHT22;18221;38.704;0.152;2024-03-23T05:48:44;16.00;99.90
10175;DHT22;18221;38.704;0.152;2024-03-23T05:51:12;16.00;99.90
10175;DHT22;18221;38.704;0.152;2024-03-23T05:53:40;16.00;99.90
10175;DHT22;18221;38.704;0.152;2024-03-23T05:56:07;16.00;99.90
10175;DHT22;18221;38.704;0.152;2024-03-23T05:58:35;16.10;99.90
10175;DHT22;18221;38.704;0.152;2024-03-23T06:01:02;16.10;99.90
10175;DHT22;18221;38.704;0.152;2024-03-23T06:03:30;16.10;99.90
10175;DHT22;18221;38.704;0.152;2024-03-23T06:05:57;16.10;99.90
10175;DHT22;18221;38.704;0.152;2024-03-23T06:08:27;16.10;99.90
10175;DHT22;18221;38.704;0.152;2024-03-23T06:10:54;16.10;99.90
10175;DHT22;18221;38.704;0.152;2024-03-23T06:13:22;16.10;99.90
10175;DHT22;18221;38.704;0.152;2024-03-23T06:15:55;16.20;99.90
10175;DHT22;18221;38.704;0.152;2024-03-23T06:18:24;16.30;99.90
10175;DHT22;18221;38.704;0.152;2024-03-23T06:20:51;16.30;99.90
10175;DHT22;18221;38.704;0.152;2024-03-23T06:23:19;16.30;99.90
10175;DHT22;18221;38.704;0.152;2024-03-23T06:25:48;16.30;99.90
10175;DHT22;18221;38.704;0.152;2024-03-23T06:28:16;16.40;99.90
10175;DHT22;18221;38.704;0.152;2024-03-23T06:30:44;16.40;99.90
10175;DHT22;18221;38.704;0.152;2024-03-23T06:33:12;16.50;99.90
10175;DHT22;18221;38.704;0.152;2024-03-23T06:35:40;16.50;99.90
10175;DHT22;18221;38.704;0.152;2024-03-23T06:38:08;16.50;99.90
10175;DHT22;18221;38.704;0.152;2024-03-23T06:40:36;16.50;99.90
10175;DHT22;18221;38.704;0.152;2024-03-23T06:43:06;16.50;99.90
10175;DHT22;18221;38.704;0.152;2024-03-23T06:45:33;16.50;99.90
10175;DHT22;18221;38.704;0.152;2024-03-23T06:48:03;16.60;99.90
10175;DHT22;18221;38.704;0.152;2024-03-23T06:50:30;16.60;99.90
10175;DHT22;18221;38.704;0.152;2024-03-23T06:52:58;16.60;99.90
10175;DHT22;18221;38.704;0.152;2024-03-23T06:55:25;16.70;99.90
10175;DHT22;18221;38.704;0.152;2024-03-23T06:57:53;16.70;99.90
10175;DHT22;18221;38.704;0.152;2024-03-23T07:00:22;16.80;99.90
10175;DHT22;18221;38.704;0.152;2024-03-23T07:02:51;16.70;99.90
10175;DHT22;18221;38.704;0.152;2024-03-23T07:05:18;16.70;99.90
10175;DHT22;18221;38.704;0.152;2024-03-23T07:07:46;16.80;99.90
10175;DHT22;18221;38.704;0.152;2024-03-23T07:10:13;16.80;99.90
10175;DHT22;18221;38.704;0.152;2024-03-23T07:12:41;16.80;99.90
10175;DHT22;18221;38.704;0.152;2024-03-23T07:15:09;16.90;99.90
10175;DHT22;18221;38.704;0.152;2024-03-23T07:17:38;15.90;99.90
10175;DHT22;18221;38.704;0.152;2024-03-23T07:20:06;17.00;99.90
10175;DHT22;18221;38.704;0.152;2024-03-23T07:22:36;17.10;99.90
10175;DHT22;18221;38.704;0.152;2024-03-23T07:25:03;17.10;99.90
10175;DHT22;18221;38.704;0.152;2024-03-23T07:27:33;17.10;99.90
10175;DHT22;18221;38.704;0.152;2024-03-23T07:30:00;17.10;99.90
10175;DHT22;18221;38.704;0.152;2024-03-23T07:32:28;17.10;99.90
10175;DHT22;18221;38.704;0.152;2024-03-23T07:34:56;17.10;99.90
10175;DHT22;18221;38.704;0.152;2024-03-23T07:37:24;17.10;99.90
10175;DHT22;18221;38.704;0.152;2024-03-23T07:39:51;17.10;99.90
10175;DHT22;18221;38.704;0.152;2024-03-23T07:42:19;17.10;99.90
10175;DHT22;18221;38.704;0.152;2024-03-23T07:44:46;17.10;99.90
10175;DHT22;18221;38.704;0.152;2024-03-23T07:47:15;17.20;99.90
10175;DHT22;18221;38.704;0.152;2024-03-23T07:49:42;17.20;99.90
10175;DHT22;18221;38.704;0.152;2024-03-23T07:52:11;17.30;99.90
10175;DHT22;18221;38.704;0.152;2024-03-23T07:54:38;17.30;99.90
10175;DHT22;18221;38.704;0.152;2024-03-23T07:57:07;17.40;99.90
10175;DHT22;18221;38.704;0.152;2024-03-23T07:59:33;17.40;99.90
10175;DHT22;18221;38.704;0.152;2024-03-23T08:02:02;17.40;99.90
10175;DHT22;18221;38.704;0.152;2024-03-23T08:04:29;17.50;99.90
10175;DHT22;18221;38.704;0.152;2024-03-23T08:06:57;17.60;99.90
10175;DHT22;18221;38.704;0.152;2024-03-23T08:09:27;17.60;99.90
10175;DHT22;18221;38.704;0.152;2024-03-23T08:11:56;17.70;99.90
10175;DHT22;18221;38.704;0.152;2024-03-23T08:14:24;17.70;99.90
10175;DHT22;18221;38.704;0.152;2024-03-23T08:16:54;17.80;99.90
10175;DHT22;18221;38.704;0.152;2024-03-23T08:19:21;17.80;99.90
10175;DHT22;18221;38.704;0.152;2024-03-23T08:21:49;17.90;99.90
10175;DHT22;18221;38.704;0.152;2024-03-23T08:24:17;17.90;99.90
10175;DHT22;18221;38.704;0.152;2024-03-23T08:26:47;18.00;99.90
10175;DHT22;18221;38.704;0.152;2024-03-23T08:29:14;18.10;99.90
10175;DHT22;18221;38.704;0.152;2024-03-23T08:31:42;18.20;99.90
10175;DHT22;18221;38.704;0.152;2024-03-23T08:34:09;18.30;99.90
10175;DHT22;18221;38.704;0.152;2024-03-23T08:36:36;18.40;99.90
10175;DHT22;18221;38.704;0.152;2024-03-23T08:39:03;18.50;99.90
10175;DHT22;18221;38.704;0.152;2024-03-23T08:41:31;18.50;99.90
10175;DHT22;18221;38.704;0.152;2024-03-23T08:44:01;18.60;99.90
10175;DHT22;18221;38.704;0.152;2024-03-23T08:46:28;18.70;99.90
10175;DHT22;18221;38.704;0.152;2024-03-23T08:48:56;18.70;99.90
10175;DHT22;18221;38.704;0.152;2024-03-23T08:51:23;18.80;99.90
10175;DHT22;18221;38.704;0.152;2024-03-23T08:53:51;18.80;99.90
10175;DHT22;18221;38.704;0.152;2024-03-23T08:56:17;18.90;99.90
10175;DHT22;18221;38.704;0.152;2024-03-23T08:58:46;18.90;99.90
10175;DHT22;18221;38.704;0.152;2024-03-23T09:01:14;19.00;99.90
10175;DHT22;18221;38.704;0.152;2024-03-23T09:03:44;19.10;99.90
10175;DHT22;18221;38.704;0.152;2024-03-23T09:06:12;19.30;99.90
10175;DHT22;18221;38.704;0.152;2024-03-23T09:08:41;19.30;99.90
10175;DHT22;18221;38.704;0.152;2024-03-23T09:11:09;20.70;99.90
10175;DHT22;18221;38.704;0.152;2024-03-23T09:13:39;19.40;99.90
10175;DHT22;18221;38.704;0.152;2024-03-23T09:16:07;19.40;99.90
10175;DHT22;18221;38.704;0.152;2024-03-23T09:18:40;19.50;99.90
10175;DHT22;18221;38.704;0.152;2024-03-23T09:21:11;19.50;99.90
10175;DHT22;18221;38.704;0.152;2024-03-23T09:23:41;19.60;99.90
10175;DHT22;18221;38.704;0.152;2024-03-23T09:26:09;19.60;99.90
10175;DHT22;18221;38.704;0.152;2024-03-23T09:28:37;19.70;99.90
10175;DHT22;18221;38.704;0.152;2024-03-23T09:31:05;19.70;99.90
10175;DHT22;18221;38.704;0.152;2024-03-23T09:33:34;19.80;99.90
10175;DHT22;18221;38.704;0.152;2024-03-23T09:36:05;19.80;99.90
10175;DHT22;18221;38.704;0.152;2024-03-23T09:38:34;19.90;99.90
10175;DHT22;18221;38.704;0.152;2024-03-23T09:41:06;20.00;99.90
10175;DHT22;18221;38.704;0.152;2024-03-23T09:43:35;20.00;99.90
10175;DHT22;18221;38.704;0.152;2024-03-23T09:46:02;20.00;99.90
10175;DHT22;18221;38.704;0.152;2024-03-23T09:48:31;20.00;99.90
10175;DHT22;18221;38.704;0.152;2024-03-23T09:50:58;20.10;99.90
10175;DHT22;18221;38.704;0.152;2024-03-23T09:53:28;20.00;99.90
10175;DHT22;18221;38.704;0.152;2024-03-23T09:55:55;19.90;99.90
10175;DHT22;18221;38.704;0.152;2024-03-23T09:58:23;19.80;99.90
10175;DHT22;18221;38.704;0.152;2024-03-23T10:00:50;19.70;99.90
10175;DHT22;18221;38.704;0.152;2024-03-23T10:03:19;19.60;99.90
10175;DHT22;18221;38.704;0.152;2024-03-23T10:05:46;19.50;99.90
10175;DHT22;18221;38.704;0.152;2024-03-23T10:08:18;19.50;99.90
10175;DHT22;18221;38.704;0.152;2024-03-23T10:10:49;19.50;99.90
10175;DHT22;18221;38.704;0.152;2024-03-23T10:13:27;19.50;99.90
10175;DHT22;18221;38.704;0.152;2024-03-23T10:15:56;19.60;99.90
10175;DHT22;18221;38.704;0.152;2024-03-23T10:18:25;19.60;99.90
10175;DHT22;18221;38.704;0.152;2024-03-23T10:21:08;19.70;99.90
10175;DHT22;18221;38.704;0.152;2024-03-23T10:23:37;19.80;99.90
10175;DHT22;18221;38.704;0.152;2024-03-23T10:26:17;19.70;99.90
10175;DHT22;18221;38.704;0.152;2024-03-23T10:28:54;19.70;99.90
10175;DHT22;18221;38.704;0.152;2024-03-23T10:31:24;19.60;99.90
10175;DHT22;18221;38.704;0.152;2024-03-23T10:33:52;19.50;99.90
10175;DHT22;18221;38.704;0.152;2024-03-23T10:36:21;19.50;99.90
10175;DHT22;18221;38.704;0.152;2024-03-23T10:38:50;19.60;99.90
10175;DHT22;18221;38.704;0.152;2024-03-23T10:41:19;19.60;99.90
10175;DHT22;18221;38.704;0.152;2024-03-23T10:43:48;19.70;99.90
10175;DHT22;18221;38.704;0.152;2024-03-23T10:46:16;19.60;99.90
10175;DHT22;18221;38.704;0.152;2024-03-23T10:48:44;19.60;99.90
10175;DHT22;18221;38.704;0.152;2024-03-23T10:51:11;19.60;99.90
10175;DHT22;18221;38.704;0.152;2024-03-23T10:53:41;19.70;99.90
10175;DHT22;18221;38.704;0.152;2024-03-23T10:56:08;19.60;99.90
10175;DHT22;18221;38.704;0.152;2024-03-23T10:58:42;19.60;99.90
10175;DHT22;18221;38.704;0.152;2024-03-23T11:01:13;19.80;99.90
10175;DHT22;18221;38.704;0.152;2024-03-23T11:03:45;19.80;99.90
10175;DHT22;18221;38.704;0.152;2024-03-23T11:06:35;19.80;99.90
10175;DHT22;18221;38.704;0.152;2024-03-23T11:09:04;19.80;99.90
10175;DHT22;18221;38.704;0.152;2024-03-23T11:12:27;19.90;99.90
10175;DHT22;18221;38.704;0.152;2024-03-23T11:15:01;20.00;99.90
10175;DHT22;18221;38.704;0.152;2024-03-23T11:17:31;20.10;99.90
10175;DHT22;18221;38.704;0.152;2024-03-23T11:19:59;20.20;99.90
10175;DHT22;18221;38.704;0.152;2024-03-23T11:22:43;20.30;99.90
10175;DHT22;18221;38.704;0.152;2024-03-23T11:25:16;20.40;99.90
10175;DHT22;18221;38.704;0.152;2024-03-23T11:27:48;20.40;99.90
10175;DHT22;18221;38.704;0.152;2024-03-23T11:30:19;20.40;99.90
10175;DHT22;18221;38.704;0.152;2024-03-23T11:32:50;20.30;99.90
10175;DHT22;18221;38.704;0.152;2024-03-23T11:35:27;20.20;99.90
10175;DHT22;18221;38.704;0.152;2024-03-23T11:38:07;20.20;99.90
10175;DHT22;18221;38.704;0.152;2024-03-23T11:40:36;20.20;99.90
10175;DHT22;18221;38.704;0.152;2024-03-23T11:43:05;20.30;99.90
10175;DHT22;18221;38.704;0.152;2024-03-23T11:45:39;20.30;99.90
10175;DHT22;18221;38.704;0.152;2024-03-23T11:48:11;20.30;99.90
10175;DHT22;18221;38.704;0.152;2024-03-23T11:50:39;20.40;99.90
10175;DHT22;18221;38.704;0.152;2024-03-23T11:53:13;20.40;99.90
10175;DHT22;18221;38.704;0.152;2024-03-23T11:55:46;19.90;99.90
10175;DHT22;18221;38.704;0.152;2024-03-23T11:58:15;20.60;99.90
10175;DHT22;18221;38.704;0.152;2024-03-23T12:00:50;20.60;99.90
10175;DHT22;18221;38.704;0.152;2024-03-23T12:03:19;20.60;99.90
10175;DHT22;18221;38.704;0.152;2024-03-23T12:05:49;20.80;99.90
10175;DHT22;18221;38.704;0.152;2024-03-23T12:08:20;20.90;99.90
10175;DHT22;18221;38.704;0.152;2024-03-23T12:10:50;21.00;99.90
10175;DHT22;18221;38.704;0.152;2024-03-23T12:13:20;21.00;99.90
10175;DHT22;18221;38.704;0.152;2024-03-23T12:15:50;21.20;99.90
10175;DHT22;18221;38.704;0.152;2024-03-23T12:18:23;21.20;99.90
10175;DHT22;18221;38.704;0.152;2024-03-23T12:20:50;21.20;99.90
10175;DHT22;18221;38.704;0.152;2024-03-23T12:23:18;21.10;99.90
10175;DHT22;18221;38.704;0.152;2024-03-23T12:25:49;20.90;99.90
10175;DHT22;18221;38.704;0.152;2024-03-23T12:28:17;20.80;99.90
10175;DHT22;18221;38.704;0.152;2024-03-23T12:30:43;20.80;99.90
10175;DHT22;18221;38.704;0.152;2024-03-23T12:33:13;20.80;99.90
10175;DHT22;18221;38.704;0.152;2024-03-23T12:35:40;20.70;99.90
10175;DHT22;18221;38.704;0.152;2024-03-23T12:38:08;20.70;99.90
10175;DHT22;18221;38.704;0.152;2024-03-23T12:40:35;20.80;99.90
10175;DHT22;18221;38.704;0.152;2024-03-23T12:43:03;20.80;99.90
10175;DHT22;18221;38.704;0.152;2024-03-23T12:45:30;20.80;99.90
10175;DHT22;18221;38.704;0.152;2024-03-23T12:47:58;20.60;99.90
10175;DHT22;18221;38.704;0.152;2024-03-23T12:50:26;20.60;99.90
10175;DHT22;18221;38.704;0.152;2024-03-23T12:52:54;20.70;99.90
10175;DHT22;18221;38.704;0.152;2024-03-23T12:55:21;20.70;99.90
10175;DHT22;18221;38.704;0.152;2024-03-23T12:57:49;20.70;99.90
10175;DHT22;18221;38.704;0.152;2024-03-23T13:00:16;20.80;99.90
10175;DHT22;18221;38.704;0.152;2024-03-23T13:02:44;21.10;99.90
10175;DHT22;18221;38.704;0.152;2024-03-23T13:05:11;21.40;99.90
10175;DHT22;18221;38.704;0.152;2024-03-23T13:07:44;21.40;99.90
10175;DHT22;18221;38.704;0.152;2024-03-23T13:10:10;21.30;99.90
10175;DHT22;18221;38.704;0.152;2024-03-23T13:12:40;21.40;99.90
10175;DHT22;18221;38.704;0.152;2024-03-23T13:15:09;21.40;99.90
10175;DHT22;18221;38.704;0.152;2024-03-23T13:17:36;21.40;99.90
10175;DHT22;18221;38.704;0.152;2024-03-23T13:20:04;21.50;99.90
10175;DHT22;18221;38.704;0.152;2024-03-23T13:22:39;21.40;99.90
10175;DHT22;18221;38.704;0.152;2024-03-23T13:25:08;21.40;99.90
10175;DHT22;18221;38.704;0.152;2024-03-23T13:27:36;21.30;99.90
10175;DHT22;18221;38.704;0.152;2024-03-23T13:30:03;21.10;99.90
10175;DHT22;18221;38.704;0.152;2024-03-23T13:32:32;21.10;99.90
10175;DHT22;18221;38.704;0.152;2024-03-23T13:34:59;21.10;99.90
10175;DHT22;18221;38.704;0.152;2024-03-23T13:37:27;21.10;99.90
10175;DHT22;18221;38.704;0.152;2024-03-23T13:39:54;21.30;99.90
10175;DHT22;18221;38.704;0.152;2024-03-23T13:42:23;21.50;99.90
10175;DHT22;18221;38.704;0.152;2024-03-23T13:44:51;21.70;99.90
10175;DHT22;18221;38.704;0.152;2024-03-23T13:47:19;21.90;99.90
10175;DHT22;18221;38.704;0.152;2024-03-23T13:49:46;21.60;99.90
10175;DHT22;18221;38.704;0.152;2024-03-23T13:52:15;21.50;99.90
10175;DHT22;18221;38.704;0.152;2024-03-23T13:54:42;21.30;99.90
10175;DHT22;18221;38.704;0.152;2024-03-23T13:57:12;21.20;99.90
10175;DHT22;18221;38.704;0.152;2024-03-23T13:59:41;21.20;99.90
10175;DHT22;18221;38.704;0.152;2024-03-23T14:02:09;21.10;99.90
10175;DHT22;18221;38.704;0.152;2024-03-23T14:04:37;21.10;99.90
10175;DHT22;18221;38.704;0.152;2024-03-23T14:07:05;21.10;99.90
10175;DHT22;18221;38.704;0.152;2024-03-23T14:09:33;21.20;99.90
10175;DHT22;18221;38.704;0.152;2024-03-23T14:12:01;21.30;99.90
10175;DHT22;18221;38.704;0.152;2024-03-23T14:14:28;21.30;99.90
10175;DHT22;18221;38.704;0.152;2024-03-23T14:16:57;21.30;99.90
10175;DHT22;18221;38.704;0.152;2024-03-23T14:19:24;21.30;99.90
10175;DHT22;18221;38.704;0.152;2024-03-23T14:21:52;21.30;99.90
10175;DHT22;18221;38.704;0.152;2024-03-23T14:24:19;21.40;99.90
10175;DHT22;18221;38.704;0.152;2024-03-23T14:26:47;21.40;99.90
10175;DHT22;18221;38.704;0.152;2024-03-23T14:29:14;21.50;99.90
10175;DHT22;18221;38.704;0.152;2024-03-23T14:31:42;21.60;99.90
10175;DHT22;18221;38.704;0.152;2024-03-23T14:34:10;21.60;99.90
10175;DHT22;18221;38.704;0.152;2024-03-23T14:36:38;21.60;99.90
10175;DHT22;18221;38.704;0.152;2024-03-23T14:39:06;21.60;99.90
10175;DHT22;18221;38.704;0.152;2024-03-23T14:41:34;21.60;99.90
10175;DHT22;18221;38.704;0.152;2024-03-23T14:44:04;21.50;99.90
10175;DHT22;18221;38.704;0.152;2024-03-23T14:46:34;21.40;99.90
10175;DHT22;18221;38.704;0.152;2024-03-23T14:49:00;21.40;99.90
10175;DHT22;18221;38.704;0.152;2024-03-23T14:51:30;21.30;99.90
10175;DHT22;18221;38.704;0.152;2024-03-23T14:53:58;21.20;99.90
10175;DHT22;18221;38.704;0.152;2024-03-23T14:56:26;21.10;99.90
10175;DHT22;18221;38.704;0.152;2024-03-23T14:58:53;21.00;99.90
10175;DHT22;18221;38.704;0.152;2024-03-23T15:01:22;21.00;99.90
10175;DHT22;18221;38.704;0.152;2024-03-23T15:03:49;21.10;99.90
10175;DHT22;18221;38.704;0.152;2024-03-23T15:06:19;21.00;99.90
10175;DHT22;18221;38.704;0.152;2024-03-23T15:08:47;20.90;99.90
10175;DHT22;18221;38.704;0.152;2024-03-23T15:11:15;20.90;99.90
10175;DHT22;18221;38.704;0.152;2024-03-23T15:13:45;20.80;99.90
10175;DHT22;18221;38.704;0.152;2024-03-23T15:16:17;20.80;99.90
10175;DHT22;18221;38.704;0.152;2024-03-23T15:18:46;20.80;99.90
10175;DHT22;18221;38.704;0.152;2024-03-23T15:21:14;20.80;99.90
10175;DHT22;18221;38.704;0.152;2024-03-23T15:23:47;20.80;99.90
10175;DHT22;18221;38.704;0.152;2024-03-23T15:26:15;20.80;99.90
10175;DHT22;18221;38.704;0.152;2024-03-23T15:28:42;20.80;99.90
10175;DHT22;18221;38.704;0.152;2024-03-23T15:31:30;20.70;99.90
10175;DHT22;18221;38.704;0.152;2024-03-23T15:33:57;20.70;99.90
10175;DHT22;18221;38.704;0.152;2024-03-23T15:36:25;20.70;99.90
10175;DHT22;18221;38.704;0.152;2024-03-23T15:38:53;20.70;99.90
10175;DHT22;18221;38.704;0.152;2024-03-23T15:41:21;20.70;99.90
10175;DHT22;18221;38.704;0.152;2024-03-23T15:43:49;20.70;99.90
10175;DHT22;18221;38.704;0.152;2024-03-23T15:46:17;20.70;99.90
10175;DHT22;18221;38.704;0.152;2024-03-23T15:48:45;20.60;99.90
10175;DHT22;18221;38.704;0.152;2024-03-23T15:51:14;20.60;99.90
10175;DHT22;18221;38.704;0.152;2024-03-23T15:53:41;20.60;99.90
10175;DHT22;18221;38.704;0.152;2024-03-23T15:56:11;20.60;99.90
10175;DHT22;18221;38.704;0.152;2024-03-23T15:58:38;20.60;99.90
10175;DHT22;18221;38.704;0.152;2024-03-23T16:01:07;20.60;99.90
10175;DHT22;18221;38.704;0.152;2024-03-23T16:03:35;20.60;99.90
10175;DHT22;18221;38.704;0.152;2024-03-23T16:06:05;20.60;99.90
10175;DHT22;18221;38.704;0.152;2024-03-23T16:08:33;20.50;99.90
10175;DHT22;18221;38.704;0.152;2024-03-23T16:11:02;20.50;99.90
10175;DHT22;18221;38.704;0.152;2024-03-23T16:13:32;20.50;99.90
10175;DHT22;18221;38.704;0.152;2024-03-23T16:16:01;20.50;99.90
10175;DHT22;18221;38.704;0.152;2024-03-23T16:18:29;20.60;99.90
10175;DHT22;18221;38.704;0.152;2024-03-23T16:20:58;20.50;99.90
10175;DHT22;18221;38.704;0.152;2024-03-23T16:23:26;20.50;99.90
10175;DHT22;18221;38.704;0.152;2024-03-23T16:25:55;20.50;99.90
10175;DHT22;18221;38.704;0.152;2024-03-23T16:28:25;20.40;99.90
10175;DHT22;18221;38.704;0.152;2024-03-23T16:30:57;20.40;99.90
10175;DHT22;18221;38.704;0.152;2024-03-23T16:33:25;20.40;99.90
10175;DHT22;18221;38.704;0.152;2024-03-23T16:36:01;20.40;99.90
10175;DHT22;18221;38.704;0.152;2024-03-23T16:38:32;20.30;99.90
10175;DHT22;18221;38.704;0.152;2024-03-23T16:41:02;20.20;99.90
10175;DHT22;18221;38.704;0.152;2024-03-23T16:43:31;20.20;99.90